sim
Sign-in with your pilot id or email,
or register
Callsign
Passwort

Schedule Details

Flight Number: OEC87702
Departure: Frankfurt Airport (EDDF) at 12:00 UTC
Arrival: Fuerteventura Airport (GCFV) at 16:00 UTC
Route: ANEK1A ANEKI Y163 NATOR DCT BALSI UN852 VERSO UL129 LABRO UA6 MOS UA411 FES UM372 AGOVA UH400 MAK UG850 ADM UN869 RUSIK RUSI3B

Weather Information
Getting current METAR information for EDDF 211720Z 09004KT 040V140 CAVOK 23/08 Q1026 NOSIG
Getting current METAR information for GCFV 211730Z 02017KT 350V050 CAVOK 27/18 Q1013

Schedule Frequency

Route Map